F/V Billabong — FHGI — position and weather

sailwx.info

Track history (hours):
 
Tides and Currents Weather Stations Pressure Air Temp Water Temp Dewpoint Dewpoint Depression Visibility Wind Speed Wind Dir Waves Ship Positions

F/V Billabong

Last reported at 2018-Jun-23 00:17 UTC. Time now 2018-Jun-24 21:51 UTC.
Position N 47°43' W 003°22'.

Length 16 m.

Type: Fishing. MMSI: 228380000.

Date/timePositionNaut miles runAvg speedWind from/ knotsBaromVisibWave heightAir tempDewpointWater temp
2018-Jun-23 00:17N 47°43' W 003°22'3 9.2
2018-Jun-23 00:00N 47°41' W 003°22'5 9.2
2018-Jun-22 23:30N 47°36' W 003°22'4 8.9
2018-Jun-22 23:00N 47°32' W 003°25'5 9.4
2018-Jun-22 22:30N 47°28' W 003°27'15 2.6
2018-Jun-22 16:56N 47°27' W 003°49'2 3.7
2018-Jun-22 16:29N 47°27' W 003°52'2 3.0
2018-Jun-22 15:58N 47°26' W 003°50'1 0.7
2018-Jun-22 14:39N 47°26' W 003°51'2 4.1
2018-Jun-22 14:06N 47°26' W 003°48'1 0.3
2018-Jun-22 11:08N 47°25' W 003°49'3 1.9
2018-Jun-22 09:23N 47°27' W 003°53'1 0.6
2018-Jun-22 07:37N 47°27' W 003°52'1 3.7
2018-Jun-22 07:22N 47°27' W 003°53'2 2.9
2018-Jun-22 06:38N 47°25' W 003°53'1 3.8
2018-Jun-22 06:28N 47°24' W 003°53'5 2.0
2018-Jun-22 03:53N 47°29' W 003°55'1 3.8
2018-Jun-22 03:30N 47°29' W 003°53'18 0.8
2018-Jun-21 03:54N 47°24' W 003°27'3 9.1
2018-Jun-21 03:30N 47°28' W 003°25'4 9.0
2018-Jun-21 03:00N 47°32' W 003°24'5 9.1
2018-Jun-21 02:30N 47°37' W 003°23'5 9.2
2018-Jun-21 02:00N 47°41' W 003°22'2 5.0
2018-Jun-21 01:30N 47°44' W 003°22'0 0.0
2018-Jun-21 01:00N 47°44' W 003°22'3 5.7
2018-Jun-21 00:30N 47°41' W 003°22'26 0.6
2018-Jun-19 02:55N 47°16' W 003°32'4 9.1
2018-Jun-19 02:29N 47°19' W 003°31'5 9.6
2018-Jun-19 02:01N 47°24' W 003°29'5 9.6
2018-Jun-19 01:31N 47°28' W 003°27'5 9.0
2018-Jun-19 01:00N 47°33' W 003°25'4 8.8
2018-Jun-19 00:30N 47°37' W 003°23'4 8.6
2018-Jun-19 00:01N 47°41' W 003°22'3 5.1
2018-Jun-18 23:30N 47°44' W 003°22'  
2018-Jun-16 00:49N 47°43' W 003°22'3 9.4
2018-Jun-16 00:30N 47°40' W 003°22'4 8.6
2018-Jun-16 00:00N 47°35' W 003°22'4 8.3
2018-Jun-15 23:30N 47°32' W 003°26'4 8.0
2018-Jun-15 23:00N 47°28' W 003°29'4 7.9
2018-Jun-15 22:30N 47°25' W 003°31'20 1.5
2018-Jun-15 09:06N 47°12' W 003°55'1 3.7
2018-Jun-15 08:53N 47°11' W 003°54'2 4.1
2018-Jun-15 08:28N 47°11' W 003°52'4 4.0
2018-Jun-15 07:35N 47°10' W 003°46'0 4.1
2018-Jun-15 07:30N 47°10' W 003°46'13 0.5
2018-Jun-14 03:44N 47°21' W 003°35'2 8.6
2018-Jun-14 03:30N 47°23' W 003°34'4 8.6
2018-Jun-14 03:00N 47°26' W 003°31'4 8.6
2018-Jun-14 02:30N 47°30' W 003°27'4 8.8
2018-Jun-14 02:00N 47°34' W 003°24'4 8.9
2018-Jun-14 01:30N 47°38' W 003°23'4 8.9
2018-Jun-14 01:00N 47°43' W 003°22'1 2.5
2018-Jun-14 00:30N 47°44' W 003°22'2 3.1
2018-Jun-14 00:00N 47°42' W 003°22'5 9.4
2018-Jun-13 23:31N 47°40' W 003°28'4 8.8
2018-Jun-13 23:00N 47°38' W 003°34'4 8.8
2018-Jun-13 22:30N 47°34' W 003°37'4 8.8
2018-Jun-13 22:00N 47°30' W 003°40'4 8.8
2018-Jun-13 21:30N 47°26' W 003°44'3 4.8
2018-Jun-13 20:47N 47°23' W 003°46'1 3.9
2018-Jun-13 20:27N 47°23' W 003°44'2 3.9
2018-Jun-13 19:59N 47°22' W 003°43'2 3.9
2018-Jun-13 19:29N 47°20' W 003°42'10 2.4
2018-Jun-13 15:04N 47°10' W 003°40'1 0.4
2018-Jun-13 12:42N 47°09' W 003°40'2 1.0
2018-Jun-13 10:33N 47°08' W 003°43'2 1.6
2018-Jun-13 09:01N 47°09' W 003°46'0 3.9
2018-Jun-13 09:00N 47°09' W 003°46'3 3.5
2018-Jun-13 08:17N 47°07' W 003°44'3 0.7
2018-Jun-13 03:17N 47°10' W 003°41'1 1.7
2018-Jun-13 02:57N 47°09' W 003°40'2 3.8
2018-Jun-13 02:23N 47°08' W 003°38'5 2.9
2018-Jun-13 00:45N 47°12' W 003°39'1 3.6
2018-Jun-13 00:30N 47°12' W 003°38'  
Track history (hours):
 
Tides and Currents Weather Stations Pressure Air Temp Water Temp Dewpoint Dewpoint Depression Visibility Wind Speed Wind Dir Waves Ship Positions

F/V Billabong

Last reported at 2018-Jun-23 00:17 UTC. Time now 2018-Jun-24 21:51 UTC.
Position N 47°43' W 003°22'.

Length 16 m.

Type: Fishing. MMSI: 228380000.

Date/timePositionNaut miles runAvg speedWind from/ knotsBaromVisibWave heightAir tempDewpointWater temp
2018-Jun-23 00:17N 47°43' W 003°22'3 9.2
2018-Jun-23 00:00N 47°41' W 003°22'5 9.2
2018-Jun-22 23:30N 47°36' W 003°22'4 8.9
2018-Jun-22 23:00N 47°32' W 003°25'5 9.4
2018-Jun-22 22:30N 47°28' W 003°27'15 2.6
2018-Jun-22 16:56N 47°27' W 003°49'2 3.7
2018-Jun-22 16:29N 47°27' W 003°52'2 3.0
2018-Jun-22 15:58N 47°26' W 003°50'1 0.7
2018-Jun-22 14:39N 47°26' W 003°51'2 4.1
2018-Jun-22 14:06N 47°26' W 003°48'1 0.3
2018-Jun-22 11:08N 47°25' W 003°49'3 1.9
2018-Jun-22 09:23N 47°27' W 003°53'1 0.6
2018-Jun-22 07:37N 47°27' W 003°52'1 3.7
2018-Jun-22 07:22N 47°27' W 003°53'2 2.9
2018-Jun-22 06:38N 47°25' W 003°53'1 3.8
2018-Jun-22 06:28N 47°24' W 003°53'5 2.0
2018-Jun-22 03:53N 47°29' W 003°55'1 3.8
2018-Jun-22 03:30N 47°29' W 003°53'18 0.8
2018-Jun-21 03:54N 47°24' W 003°27'3 9.1
2018-Jun-21 03:30N 47°28' W 003°25'4 9.0
2018-Jun-21 03:00N 47°32' W 003°24'5 9.1
2018-Jun-21 02:30N 47°37' W 003°23'5 9.2
2018-Jun-21 02:00N 47°41' W 003°22'2 5.0
2018-Jun-21 01:30N 47°44' W 003°22'0 0.0
2018-Jun-21 01:00N 47°44' W 003°22'3 5.7
2018-Jun-21 00:30N 47°41' W 003°22'26 0.6
2018-Jun-19 02:55N 47°16' W 003°32'4 9.1
2018-Jun-19 02:29N 47°19' W 003°31'5 9.6
2018-Jun-19 02:01N 47°24' W 003°29'5 9.6
2018-Jun-19 01:31N 47°28' W 003°27'5 9.0
2018-Jun-19 01:00N 47°33' W 003°25'4 8.8
2018-Jun-19 00:30N 47°37' W 003°23'4 8.6
2018-Jun-19 00:01N 47°41' W 003°22'3 5.1
2018-Jun-18 23:30N 47°44' W 003°22'  
2018-Jun-16 00:49N 47°43' W 003°22'3 9.4
2018-Jun-16 00:30N 47°40' W 003°22'4 8.6
2018-Jun-16 00:00N 47°35' W 003°22'4 8.3
2018-Jun-15 23:30N 47°32' W 003°26'4 8.0
2018-Jun-15 23:00N 47°28' W 003°29'4 7.9
2018-Jun-15 22:30N 47°25' W 003°31'20 1.5
2018-Jun-15 09:06N 47°12' W 003°55'1 3.7
2018-Jun-15 08:53N 47°11' W 003°54'2 4.1
2018-Jun-15 08:28N 47°11' W 003°52'4 4.0
2018-Jun-15 07:35N 47°10' W 003°46'0 4.1
2018-Jun-15 07:30N 47°10' W 003°46'13 0.5
2018-Jun-14 03:44N 47°21' W 003°35'2 8.6
2018-Jun-14 03:30N 47°23' W 003°34'4 8.6
2018-Jun-14 03:00N 47°26' W 003°31'4 8.6
2018-Jun-14 02:30N 47°30' W 003°27'4 8.8
2018-Jun-14 02:00N 47°34' W 003°24'4 8.9
2018-Jun-14 01:30N 47°38' W 003°23'4 8.9
2018-Jun-14 01:00N 47°43' W 003°22'1 2.5
2018-Jun-14 00:30N 47°44' W 003°22'2 3.1
2018-Jun-14 00:00N 47°42' W 003°22'5 9.4
2018-Jun-13 23:31N 47°40' W 003°28'4 8.8
2018-Jun-13 23:00N 47°38' W 003°34'4 8.8
2018-Jun-13 22:30N 47°34' W 003°37'4 8.8
2018-Jun-13 22:00N 47°30' W 003°40'4 8.8
2018-Jun-13 21:30N 47°26' W 003°44'3 4.8
2018-Jun-13 20:47N 47°23' W 003°46'1 3.9
2018-Jun-13 20:27N 47°23' W 003°44'2 3.9
2018-Jun-13 19:59N 47°22' W 003°43'2 3.9
2018-Jun-13 19:29N 47°20' W 003°42'10 2.4
2018-Jun-13 15:04N 47°10' W 003°40'1 0.4
2018-Jun-13 12:42N 47°09' W 003°40'2 1.0
2018-Jun-13 10:33N 47°08' W 003°43'2 1.6
2018-Jun-13 09:01N 47°09' W 003°46'0 3.9
2018-Jun-13 09:00N 47°09' W 003°46'3 3.5
2018-Jun-13 08:17N 47°07' W 003°44'3 0.7
2018-Jun-13 03:17N 47°10' W 003°41'1 1.7
2018-Jun-13 02:57N 47°09' W 003°40'2 3.8
2018-Jun-13 02:23N 47°08' W 003°38'5 2.9
2018-Jun-13 00:45N 47°12' W 003°39'1 3.6
2018-Jun-13 00:30N 47°12' W 003°38'  

Dump ship's entire track history